sensor_id;sensor_type;location;lat;lon;timestamp;P1;durP1;ratioP1;P2;durP2;ratioP2
54979;SDS011;44101;50.462;30.432;2022-09-09T00:02:13;4.80;;;2.67;;
54979;SDS011;44101;50.462;30.432;2022-09-09T00:04:41;6.82;;;3.10;;
54979;SDS011;44101;50.462;30.432;2022-09-09T00:09:48;5.38;;;2.72;;
54979;SDS011;44101;50.462;30.432;2022-09-09T00:15:05;3.72;;;2.50;;
54979;SDS011;44101;50.462;30.432;2022-09-09T00:17:43;8.50;;;3.00;;
54979;SDS011;44101;50.462;30.432;2022-09-09T00:20:34;4.60;;;2.92;;
54979;SDS011;44101;50.462;30.432;2022-09-09T00:25:54;6.82;;;2.80;;
54979;SDS011;44101;50.462;30.432;2022-09-09T00:28:44;6.55;;;3.10;;
54979;SDS011;44101;50.462;30.432;2022-09-09T00:31:18;4.18;;;2.72;;
54979;SDS011;44101;50.462;30.432;2022-09-09T00:33:48;7.47;;;3.43;;
54979;SDS011;44101;50.462;30.432;2022-09-09T00:36:15;5.80;;;3.15;;
54979;SDS011;44101;50.462;30.432;2022-09-09T00:38:51;4.90;;;3.40;;
54979;SDS011;44101;50.462;30.432;2022-09-09T00:44:49;6.38;;;2.85;;
54979;SDS011;44101;50.462;30.432;2022-09-09T00:50:05;5.47;;;3.13;;
54979;SDS011;44101;50.462;30.432;2022-09-09T00:55:54;7.82;;;3.40;;
54979;SDS011;44101;50.462;30.432;2022-09-09T00:58:31;6.45;;;3.15;;
54979;SDS011;44101;50.462;30.432;2022-09-09T01:01:00;6.28;;;3.58;;
54979;SDS011;44101;50.462;30.432;2022-09-09T01:15:15;8.25;;;3.83;;
54979;SDS011;44101;50.462;30.432;2022-09-09T01:17:51;5.63;;;3.40;;
54979;SDS011;44101;50.462;30.432;2022-09-09T01:20:25;5.18;;;3.30;;
54979;SDS011;44101;50.462;30.432;2022-09-09T01:28:42;6.90;;;3.60;;
54979;SDS011;44101;50.462;30.432;2022-09-09T01:31:14;4.72;;;3.13;;
54979;SDS011;44101;50.462;30.432;2022-09-09T01:33:51;8.77;;;3.67;;
54979;SDS011;44101;50.462;30.432;2022-09-09T01:38:51;10.07;;;4.00;;
54979;SDS011;44101;50.462;30.432;2022-09-09T01:41:18;10.82;;;3.70;;
54979;SDS011;44101;50.462;30.432;2022-09-09T01:43:54;12.48;;;3.92;;
54979;SDS011;44101;50.462;30.432;2022-09-09T01:46:21;10.77;;;4.22;;
54979;SDS011;44101;50.462;30.432;2022-09-09T01:48:52;10.90;;;4.00;;
54979;SDS011;44101;50.462;30.432;2022-09-09T01:51:19;16.83;;;4.35;;
54979;SDS011;44101;50.462;30.432;2022-09-09T01:53:47;16.90;;;4.53;;
54979;SDS011;44101;50.462;30.432;2022-09-09T02:04:49;19.73;;;5.18;;
54979;SDS011;44101;50.462;30.432;2022-09-09T02:09:52;16.08;;;4.53;;
54979;SDS011;44101;50.462;30.432;2022-09-09T02:12:27;14.75;;;4.90;;
54979;SDS011;44101;50.462;30.432;2022-09-09T02:14:59;18.75;;;4.45;;
54979;SDS011;44101;50.462;30.432;2022-09-09T02:17:43;20.65;;;4.93;;
54979;SDS011;44101;50.462;30.432;2022-09-09T02:20:14;16.30;;;6.07;;
54979;SDS011;44101;50.462;30.432;2022-09-09T02:22:51;15.32;;;5.25;;
54979;SDS011;44101;50.462;30.432;2022-09-09T02:25:21;17.27;;;5.20;;
54979;SDS011;44101;50.462;30.432;2022-09-09T02:27:52;16.83;;;4.63;;
54979;SDS011;44101;50.462;30.432;2022-09-09T02:30:18;15.38;;;4.38;;
54979;SDS011;44101;50.462;30.432;2022-09-09T02:32:53;13.32;;;4.60;;
54979;SDS011;44101;50.462;30.432;2022-09-09T02:35:37;18.45;;;4.47;;
54979;SDS011;44101;50.462;30.432;2022-09-09T02:38:05;24.05;;;5.03;;
54979;SDS011;44101;50.462;30.432;2022-09-09T02:40:37;15.85;;;4.32;;
54979;SDS011;44101;50.462;30.432;2022-09-09T02:43:03;20.08;;;5.07;;
54979;SDS011;44101;50.462;30.432;2022-09-09T02:45:41;22.33;;;7.45;;
54979;SDS011;44101;50.462;30.432;2022-09-09T02:48:17;21.17;;;6.43;;
54979;SDS011;44101;50.462;30.432;2022-09-09T02:50:54;11.65;;;4.88;;
54979;SDS011;44101;50.462;30.432;2022-09-09T02:56:16;18.63;;;5.18;;
54979;SDS011;44101;50.462;30.432;2022-09-09T02:58:47;24.10;;;5.45;;
54979;SDS011;44101;50.462;30.432;2022-09-09T03:01:14;19.17;;;4.63;;
54979;SDS011;44101;50.462;30.432;2022-09-09T03:03:41;21.00;;;4.70;;
54979;SDS011;44101;50.462;30.432;2022-09-09T03:06:10;18.95;;;4.53;;
54979;SDS011;44101;50.462;30.432;2022-09-09T03:08:38;10.48;;;4.43;;
54979;SDS011;44101;50.462;30.432;2022-09-09T03:11:04;23.95;;;4.75;;
54979;SDS011;44101;50.462;30.432;2022-09-09T03:13:33;15.48;;;4.65;;
54979;SDS011;44101;50.462;30.432;2022-09-09T03:15:59;11.85;;;4.15;;
54979;SDS011;44101;50.462;30.432;2022-09-09T03:18:26;13.07;;;4.57;;
54979;SDS011;44101;50.462;30.432;2022-09-09T03:20:54;16.52;;;4.68;;
54979;SDS011;44101;50.462;30.432;2022-09-09T03:23:20;11.88;;;4.72;;
54979;SDS011;44101;50.462;30.432;2022-09-09T03:25:51;13.88;;;3.85;;
54979;SDS011;44101;50.462;30.432;2022-09-09T03:28:23;14.05;;;4.25;;
54979;SDS011;44101;50.462;30.432;2022-09-09T03:31:03;22.42;;;5.03;;
54979;SDS011;44101;50.462;30.432;2022-09-09T03:33:36;16.73;;;4.75;;
54979;SDS011;44101;50.462;30.432;2022-09-09T03:36:03;19.38;;;4.70;;
54979;SDS011;44101;50.462;30.432;2022-09-09T03:38:28;15.50;;;5.43;;
54979;SDS011;44101;50.462;30.432;2022-09-09T03:40:55;17.27;;;5.07;;
54979;SDS011;44101;50.462;30.432;2022-09-09T03:43:23;13.93;;;4.95;;
54979;SDS011;44101;50.462;30.432;2022-09-09T03:45:51;17.70;;;5.30;;
54979;SDS011;44101;50.462;30.432;2022-09-09T03:48:18;24.73;;;5.65;;
54979;SDS011;44101;50.462;30.432;2022-09-09T03:50:53;22.90;;;5.50;;
54979;SDS011;44101;50.462;30.432;2022-09-09T03:53:23;22.50;;;6.15;;
54979;SDS011;44101;50.462;30.432;2022-09-09T03:55:51;17.35;;;5.20;;
54979;SDS011;44101;50.462;30.432;2022-09-09T03:58:24;17.08;;;5.78;;
54979;SDS011;44101;50.462;30.432;2022-09-09T04:03:29;21.67;;;5.78;;
54979;SDS011;44101;50.462;30.432;2022-09-09T04:05:56;23.08;;;5.80;;
54979;SDS011;44101;50.462;30.432;2022-09-09T04:08:25;19.88;;;6.75;;
54979;SDS011;44101;50.462;30.432;2022-09-09T04:10:51;20.60;;;5.43;;
54979;SDS011;44101;50.462;30.432;2022-09-09T04:13:18;21.05;;;5.57;;
54979;SDS011;44101;50.462;30.432;2022-09-09T04:15:53;22.60;;;5.28;;
54979;SDS011;44101;50.462;30.432;2022-09-09T04:18:21;19.85;;;5.13;;
54979;SDS011;44101;50.462;30.432;2022-09-09T04:20:49;13.63;;;5.70;;
54979;SDS011;44101;50.462;30.432;2022-09-09T04:23:20;15.30;;;5.10;;
54979;SDS011;44101;50.462;30.432;2022-09-09T04:25:46;20.52;;;6.07;;
54979;SDS011;44101;50.462;30.432;2022-09-09T04:28:14;16.55;;;5.35;;
54979;SDS011;44101;50.462;30.432;2022-09-09T04:30:40;18.38;;;4.93;;
54979;SDS011;44101;50.462;30.432;2022-09-09T04:33:07;23.70;;;5.22;;
54979;SDS011;44101;50.462;30.432;2022-09-09T04:35:33;18.80;;;5.47;;
54979;SDS011;44101;50.462;30.432;2022-09-09T04:37:59;21.98;;;6.70;;
54979;SDS011;44101;50.462;30.432;2022-09-09T04:40:29;16.00;;;6.63;;
54979;SDS011;44101;50.462;30.432;2022-09-09T04:43:00;16.45;;;6.40;;
54979;SDS011;44101;50.462;30.432;2022-09-09T04:45:28;22.85;;;7.25;;
54979;SDS011;44101;50.462;30.432;2022-09-09T04:47:54;16.65;;;6.03;;
54979;SDS011;44101;50.462;30.432;2022-09-09T04:50:21;21.98;;;5.47;;
54979;SDS011;44101;50.462;30.432;2022-09-09T04:52:47;12.27;;;5.10;;
54979;SDS011;44101;50.462;30.432;2022-09-09T04:55:13;19.83;;;5.13;;
54979;SDS011;44101;50.462;30.432;2022-09-09T04:57:42;13.15;;;4.72;;
54979;SDS011;44101;50.462;30.432;2022-09-09T05:00:11;20.85;;;5.80;;
54979;SDS011;44101;50.462;30.432;2022-09-09T05:02:40;13.68;;;4.88;;
54979;SDS011;44101;50.462;30.432;2022-09-09T05:05:07;12.63;;;5.22;;
54979;SDS011;44101;50.462;30.432;2022-09-09T05:07:34;13.43;;;4.90;;
54979;SDS011;44101;50.462;30.432;2022-09-09T05:10:00;16.25;;;4.32;;
54979;SDS011;44101;50.462;30.432;2022-09-09T05:12:25;15.27;;;4.82;;
54979;SDS011;44101;50.462;30.432;2022-09-09T05:14:52;13.98;;;4.50;;
54979;SDS011;44101;50.462;30.432;2022-09-09T05:17:18;10.48;;;4.20;;
54979;SDS011;44101;50.462;30.432;2022-09-09T05:19:44;18.58;;;4.68;;
54979;SDS011;44101;50.462;30.432;2022-09-09T05:22:11;13.13;;;4.38;;
54979;SDS011;44101;50.462;30.432;2022-09-09T05:24:43;16.75;;;4.75;;
54979;SDS011;44101;50.462;30.432;2022-09-09T05:27:11;15.05;;;4.40;;
54979;SDS011;44101;50.462;30.432;2022-09-09T05:29:38;8.25;;;3.90;;
54979;SDS011;44101;50.462;30.432;2022-09-09T05:32:07;12.98;;;4.32;;
54979;SDS011;44101;50.462;30.432;2022-09-09T05:34:35;15.15;;;4.45;;
54979;SDS011;44101;50.462;30.432;2022-09-09T05:37:00;10.73;;;4.00;;
54979;SDS011;44101;50.462;30.432;2022-09-09T05:39:26;18.83;;;4.93;;
54979;SDS011;44101;50.462;30.432;2022-09-09T05:41:52;12.60;;;4.22;;
54979;SDS011;44101;50.462;30.432;2022-09-09T05:44:18;13.98;;;4.50;;
54979;SDS011;44101;50.462;30.432;2022-09-09T05:46:44;14.88;;;4.28;;
54979;SDS011;44101;50.462;30.432;2022-09-09T05:49:12;11.20;;;4.07;;
54979;SDS011;44101;50.462;30.432;2022-09-09T05:51:39;11.13;;;4.05;;
54979;SDS011;44101;50.462;30.432;2022-09-09T05:54:10;17.00;;;4.25;;
54979;SDS011;44101;50.462;30.432;2022-09-09T05:56:42;8.75;;;4.03;;
54979;SDS011;44101;50.462;30.432;2022-09-09T05:59:11;14.75;;;5.20;;
54979;SDS011;44101;50.462;30.432;2022-09-09T06:01:38;11.65;;;4.95;;
54979;SDS011;44101;50.462;30.432;2022-09-09T06:04:07;13.77;;;4.25;;
54979;SDS011;44101;50.462;30.432;2022-09-09T06:06:36;13.40;;;4.97;;
54979;SDS011;44101;50.462;30.432;2022-09-09T06:09:10;12.18;;;3.85;;
54979;SDS011;44101;50.462;30.432;2022-09-09T06:11:39;16.65;;;4.47;;
54979;SDS011;44101;50.462;30.432;2022-09-09T06:14:24;18.27;;;4.68;;
54979;SDS011;44101;50.462;30.432;2022-09-09T06:16:52;15.38;;;4.82;;
54979;SDS011;44101;50.462;30.432;2022-09-09T06:19:22;11.00;;;4.75;;
54979;SDS011;44101;50.462;30.432;2022-09-09T06:21:54;11.52;;;3.97;;
54979;SDS011;44101;50.462;30.432;2022-09-09T06:24:20;14.90;;;4.20;;
54979;SDS011;44101;50.462;30.432;2022-09-09T06:26:46;21.02;;;4.10;;
54979;SDS011;44101;50.462;30.432;2022-09-09T06:29:17;14.43;;;4.82;;
54979;SDS011;44101;50.462;30.432;2022-09-09T06:31:42;16.67;;;4.45;;
54979;SDS011;44101;50.462;30.432;2022-09-09T06:34:13;15.77;;;4.57;;
54979;SDS011;44101;50.462;30.432;2022-09-09T06:36:43;14.02;;;4.63;;
54979;SDS011;44101;50.462;30.432;2022-09-09T06:39:11;17.52;;;5.10;;
54979;SDS011;44101;50.462;30.432;2022-09-09T06:41:38;18.02;;;5.00;;
54979;SDS011;44101;50.462;30.432;2022-09-09T06:44:07;12.98;;;5.00;;
54979;SDS011;44101;50.462;30.432;2022-09-09T06:46:39;14.20;;;3.83;;
54979;SDS011;44101;50.462;30.432;2022-09-09T06:49:05;16.95;;;4.22;;
54979;SDS011;44101;50.462;30.432;2022-09-09T06:51:36;11.13;;;4.18;;
54979;SDS011;44101;50.462;30.432;2022-09-09T06:54:10;13.82;;;4.28;;
54979;SDS011;44101;50.462;30.432;2022-09-09T06:56:39;17.05;;;4.43;;
54979;SDS011;44101;50.462;30.432;2022-09-09T06:59:11;10.77;;;4.15;;
54979;SDS011;44101;50.462;30.432;2022-09-09T07:01:38;11.70;;;4.40;;
54979;SDS011;44101;50.462;30.432;2022-09-09T07:04:09;11.43;;;3.60;;
54979;SDS011;44101;50.462;30.432;2022-09-09T07:06:42;10.65;;;4.22;;
54979;SDS011;44101;50.462;30.432;2022-09-09T07:09:13;12.25;;;3.97;;
54979;SDS011;44101;50.462;30.432;2022-09-09T07:11:44;18.67;;;4.07;;
54979;SDS011;44101;50.462;30.432;2022-09-09T07:14:12;15.93;;;4.25;;
54979;SDS011;44101;50.462;30.432;2022-09-09T07:16:41;15.00;;;4.03;;
54979;SDS011;44101;50.462;30.432;2022-09-09T07:19:08;11.27;;;4.15;;
54979;SDS011;44101;50.462;30.432;2022-09-09T07:21:35;10.77;;;4.10;;
54979;SDS011;44101;50.462;30.432;2022-09-09T07:24:01;11.02;;;3.92;;
54979;SDS011;44101;50.462;30.432;2022-09-09T07:26:29;10.50;;;3.75;;
54979;SDS011;44101;50.462;30.432;2022-09-09T07:28:58;11.10;;;3.55;;
54979;SDS011;44101;50.462;30.432;2022-09-09T07:31:26;12.52;;;3.60;;
54979;SDS011;44101;50.462;30.432;2022-09-09T07:33:56;8.18;;;3.13;;
54979;SDS011;44101;50.462;30.432;2022-09-09T07:36:24;10.23;;;3.17;;
54979;SDS011;44101;50.462;30.432;2022-09-09T07:38:55;12.52;;;3.47;;
54979;SDS011;44101;50.462;30.432;2022-09-09T07:43:53;10.50;;;3.20;;
54979;SDS011;44101;50.462;30.432;2022-09-09T07:46:23;12.80;;;3.67;;
54979;SDS011;44101;50.462;30.432;2022-09-09T07:48:52;12.80;;;3.63;;
54979;SDS011;44101;50.462;30.432;2022-09-09T07:51:25;13.43;;;3.83;;
54979;SDS011;44101;50.462;30.432;2022-09-09T07:53:54;12.15;;;3.67;;
54979;SDS011;44101;50.462;30.432;2022-09-09T07:56:26;12.60;;;3.58;;
54979;SDS011;44101;50.462;30.432;2022-09-09T07:58:54;13.35;;;3.33;;
54979;SDS011;44101;50.462;30.432;2022-09-09T08:01:22;9.55;;;2.85;;
54979;SDS011;44101;50.462;30.432;2022-09-09T08:03:57;6.38;;;2.30;;
54979;SDS011;44101;50.462;30.432;2022-09-09T08:06:31;12.35;;;2.40;;
54979;SDS011;44101;50.462;30.432;2022-09-09T08:09:08;5.38;;;2.25;;
54979;SDS011;44101;50.462;30.432;2022-09-09T08:11:35;9.15;;;2.60;;
54979;SDS011;44101;50.462;30.432;2022-09-09T08:14:02;5.40;;;2.65;;
54979;SDS011;44101;50.462;30.432;2022-09-09T08:16:31;7.90;;;1.92;;
54979;SDS011;44101;50.462;30.432;2022-09-09T08:19:00;6.28;;;2.00;;
54979;SDS011;44101;50.462;30.432;2022-09-09T08:21:27;11.07;;;2.20;;
54979;SDS011;44101;50.462;30.432;2022-09-09T08:23:56;3.85;;;1.65;;
54979;SDS011;44101;50.462;30.432;2022-09-09T08:26:32;8.98;;;2.15;;
54979;SDS011;44101;50.462;30.432;2022-09-09T08:29:01;5.20;;;2.05;;
54979;SDS011;44101;50.462;30.432;2022-09-09T08:31:36;9.77;;;1.92;;
54979;SDS011;44101;50.462;30.432;2022-09-09T08:34:05;8.30;;;2.30;;
54979;SDS011;44101;50.462;30.432;2022-09-09T08:36:34;6.32;;;1.98;;
54979;SDS011;44101;50.462;30.432;2022-09-09T08:39:02;6.18;;;1.73;;
54979;SDS011;44101;50.462;30.432;2022-09-09T08:46:47;7.75;;;1.75;;
54979;SDS011;44101;50.462;30.432;2022-09-09T08:52:21;7.45;;;2.08;;
54979;SDS011;44101;50.462;30.432;2022-09-09T08:58:00;5.90;;;1.75;;
54979;SDS011;44101;50.462;30.432;2022-09-09T09:00:40;8.93;;;1.80;;
54979;SDS011;44101;50.462;30.432;2022-09-09T09:04:00;6.07;;;1.90;;
54979;SDS011;44101;50.462;30.432;2022-09-09T09:11:38;5.32;;;1.70;;
54979;SDS011;44101;50.462;30.432;2022-09-09T09:16:57;5.50;;;2.00;;
54979;SDS011;44101;50.462;30.432;2022-09-09T09:19:27;5.95;;;2.03;;
54979;SDS011;44101;50.462;30.432;2022-09-09T09:22:04;6.65;;;1.85;;
54979;SDS011;44101;50.462;30.432;2022-09-09T09:24:50;4.80;;;1.58;;
54979;SDS011;44101;50.462;30.432;2022-09-09T09:29:51;5.53;;;1.67;;
54979;SDS011;44101;50.462;30.432;2022-09-09T09:32:22;3.20;;;1.45;;
54979;SDS011;44101;50.462;30.432;2022-09-09T09:34:53;6.28;;;1.83;;
54979;SDS011;44101;50.462;30.432;2022-09-09T09:37:26;3.90;;;1.88;;
54979;SDS011;44101;50.462;30.432;2022-09-09T09:40:07;5.22;;;1.90;;
54979;SDS011;44101;50.462;30.432;2022-09-09T09:42:34;5.07;;;1.60;;
54979;SDS011;44101;50.462;30.432;2022-09-09T09:48:11;7.00;;;1.40;;
54979;SDS011;44101;50.462;30.432;2022-09-09T09:50:51;4.22;;;1.38;;
54979;SDS011;44101;50.462;30.432;2022-09-09T09:55:57;2.22;;;1.13;;
54979;SDS011;44101;50.462;30.432;2022-09-09T09:58:48;3.40;;;1.30;;
54979;SDS011;44101;50.462;30.432;2022-09-09T10:03:53;9.63;;;1.17;;
54979;SDS011;44101;50.462;30.432;2022-09-09T10:06:38;3.30;;;1.17;;
54979;SDS011;44101;50.462;30.432;2022-09-09T10:09:23;6.90;;;1.13;;
54979;SDS011;44101;50.462;30.432;2022-09-09T10:22:46;3.80;;;1.10;;
54979;SDS011;44101;50.462;30.432;2022-09-09T10:33:27;5.90;;;1.75;;
54979;SDS011;44101;50.462;30.432;2022-09-09T10:38:42;4.18;;;1.20;;
54979;SDS011;44101;50.462;30.432;2022-09-09T10:41:15;10.02;;;1.98;;
54979;SDS011;44101;50.462;30.432;2022-09-09T10:52:30;11.50;;;2.15;;
54979;SDS011;44101;50.462;30.432;2022-09-09T10:57:51;5.78;;;1.63;;
54979;SDS011;44101;50.462;30.432;2022-09-09T11:00:22;7.22;;;1.48;;
54979;SDS011;44101;50.462;30.432;2022-09-09T11:02:53;3.30;;;1.58;;
54979;SDS011;44101;50.462;30.432;2022-09-09T11:05:27;2.38;;;1.33;;
54979;SDS011;44101;50.462;30.432;2022-09-09T11:08:06;7.07;;;1.55;;
54979;SDS011;44101;50.462;30.432;2022-09-09T11:13:10;4.10;;;1.53;;
54979;SDS011;44101;50.462;30.432;2022-09-09T11:15:46;9.00;;;1.50;;
54979;SDS011;44101;50.462;30.432;2022-09-09T11:18:19;3.53;;;1.33;;
54979;SDS011;44101;50.462;30.432;2022-09-09T11:20:58;3.72;;;1.48;;
54979;SDS011;44101;50.462;30.432;2022-09-09T11:23:27;6.03;;;1.52;;
54979;SDS011;44101;50.462;30.432;2022-09-09T11:26:05;6.95;;;1.52;;
54979;SDS011;44101;50.462;30.432;2022-09-09T11:41:45;3.28;;;1.10;;
54979;SDS011;44101;50.462;30.432;2022-09-09T11:44:11;10.05;;;1.20;;
54979;SDS011;44101;50.462;30.432;2022-09-09T11:46:41;6.00;;;1.33;;
54979;SDS011;44101;50.462;30.432;2022-09-09T11:56:57;3.63;;;1.42;;
54979;SDS011;44101;50.462;30.432;2022-09-09T11:59:23;4.85;;;1.10;;
54979;SDS011;44101;50.462;30.432;2022-09-09T12:06:52;5.40;;;1.60;;
54979;SDS011;44101;50.462;30.432;2022-09-09T12:09:37;3.90;;;1.10;;
54979;SDS011;44101;50.462;30.432;2022-09-09T12:14:37;5.43;;;1.42;;
54979;SDS011;44101;50.462;30.432;2022-09-09T12:17:10;4.60;;;1.30;;
54979;SDS011;44101;50.462;30.432;2022-09-09T12:19:44;3.58;;;1.42;;
54979;SDS011;44101;50.462;30.432;2022-09-09T12:28:04;1.65;;;1.08;;
54979;SDS011;44101;50.462;30.432;2022-09-09T12:30:59;3.75;;;1.30;;
54979;SDS011;44101;50.462;30.432;2022-09-09T12:33:37;3.63;;;1.05;;
54979;SDS011;44101;50.462;30.432;2022-09-09T12:36:13;6.38;;;1.38;;
54979;SDS011;44101;50.462;30.432;2022-09-09T12:38:53;4.18;;;1.52;;
54979;SDS011;44101;50.462;30.432;2022-09-09T12:41:39;4.75;;;1.50;;
54979;SDS011;44101;50.462;30.432;2022-09-09T12:44:05;3.70;;;1.42;;
54979;SDS011;44101;50.462;30.432;2022-09-09T12:46:36;7.97;;;1.58;;
54979;SDS011;44101;50.462;30.432;2022-09-09T12:52:08;3.60;;;1.83;;
54979;SDS011;44101;50.462;30.432;2022-09-09T12:54:44;4.70;;;1.08;;
54979;SDS011;44101;50.462;30.432;2022-09-09T12:57:15;4.97;;;1.23;;
54979;SDS011;44101;50.462;30.432;2022-09-09T12:59:42;7.43;;;1.88;;
54979;SDS011;44101;50.462;30.432;2022-09-09T13:02:25;9.00;;;1.45;;
54979;SDS011;44101;50.462;30.432;2022-09-09T13:04:52;4.72;;;1.80;;
54979;SDS011;44101;50.462;30.432;2022-09-09T13:07:19;5.97;;;1.77;;
54979;SDS011;44101;50.462;30.432;2022-09-09T13:09:47;5.07;;;1.42;;
54979;SDS011;44101;50.462;30.432;2022-09-09T13:12:15;2.95;;;1.73;;
54979;SDS011;44101;50.462;30.432;2022-09-09T13:14:43;8.07;;;1.60;;
54979;SDS011;44101;50.462;30.432;2022-09-09T13:17:20;6.47;;;1.80;;
54979;SDS011;44101;50.462;30.432;2022-09-09T13:19:50;6.63;;;1.48;;
54979;SDS011;44101;50.462;30.432;2022-09-09T13:22:31;5.93;;;1.77;;
54979;SDS011;44101;50.462;30.432;2022-09-09T13:25:03;7.75;;;1.98;;
54979;SDS011;44101;50.462;30.432;2022-09-09T13:30:22;17.95;;;3.08;;
54979;SDS011;44101;50.462;30.432;2022-09-09T13:33:00;2.97;;;1.70;;
54979;SDS011;44101;50.462;30.432;2022-09-09T13:35:27;5.25;;;2.00;;
54979;SDS011;44101;50.462;30.432;2022-09-09T13:37:53;9.27;;;2.80;;
54979;SDS011;44101;50.462;30.432;2022-09-09T13:40:19;7.18;;;1.70;;
54979;SDS011;44101;50.462;30.432;2022-09-09T13:42:55;2.95;;;1.90;;
54979;SDS011;44101;50.462;30.432;2022-09-09T13:45:22;7.30;;;2.05;;
54979;SDS011;44101;50.462;30.432;2022-09-09T13:47:52;7.50;;;2.35;;
54979;SDS011;44101;50.462;30.432;2022-09-09T13:52:46;8.30;;;1.80;;
54979;SDS011;44101;50.462;30.432;2022-09-09T13:55:14;6.13;;;1.80;;
54979;SDS011;44101;50.462;30.432;2022-09-09T13:57:49;3.10;;;1.90;;
54979;SDS011;44101;50.462;30.432;2022-09-09T14:00:19;7.05;;;1.70;;
54979;SDS011;44101;50.462;30.432;2022-09-09T14:02:46;8.57;;;1.70;;
54979;SDS011;44101;50.462;30.432;2022-09-09T14:05:12;7.53;;;1.55;;
54979;SDS011;44101;50.462;30.432;2022-09-09T14:07:38;8.00;;;1.35;;
54979;SDS011;44101;50.462;30.432;2022-09-09T14:10:05;7.88;;;1.38;;
54979;SDS011;44101;50.462;30.432;2022-09-09T14:12:31;3.33;;;1.40;;
54979;SDS011;44101;50.462;30.432;2022-09-09T14:14:57;5.47;;;1.40;;
54979;SDS011;44101;50.462;30.432;2022-09-09T14:17:24;7.38;;;1.80;;
54979;SDS011;44101;50.462;30.432;2022-09-09T14:19:54;4.40;;;1.50;;
54979;SDS011;44101;50.462;30.432;2022-09-09T14:22:21;5.10;;;1.98;;
54979;SDS011;44101;50.462;30.432;2022-09-09T14:24:47;8.25;;;2.17;;
54979;SDS011;44101;50.462;30.432;2022-09-09T14:27:13;5.35;;;1.80;;
54979;SDS011;44101;50.462;30.432;2022-09-09T14:29:39;9.68;;;2.13;;
54979;SDS011;44101;50.462;30.432;2022-09-09T14:32:04;6.13;;;1.60;;
54979;SDS011;44101;50.462;30.432;2022-09-09T14:34:30;5.43;;;2.28;;
54979;SDS011;44101;50.462;30.432;2022-09-09T14:36:58;10.63;;;2.40;;
54979;SDS011;44101;50.462;30.432;2022-09-09T14:39:24;10.93;;;1.90;;
54979;SDS011;44101;50.462;30.432;2022-09-09T14:41:49;7.70;;;2.17;;
54979;SDS011;44101;50.462;30.432;2022-09-09T14:44:15;17.98;;;2.10;;
54979;SDS011;44101;50.462;30.432;2022-09-09T14:46:41;8.35;;;2.15;;
54979;SDS011;44101;50.462;30.432;2022-09-09T14:49:08;9.50;;;2.17;;
54979;SDS011;44101;50.462;30.432;2022-09-09T14:51:35;10.23;;;1.60;;
54979;SDS011;44101;50.462;30.432;2022-09-09T14:54:02;9.60;;;1.67;;
54979;SDS011;44101;50.462;30.432;2022-09-09T14:56:28;10.98;;;1.85;;
54979;SDS011;44101;50.462;30.432;2022-09-09T14:58:57;7.20;;;1.67;;
54979;SDS011;44101;50.462;30.432;2022-09-09T15:01:26;6.32;;;1.60;;
54979;SDS011;44101;50.462;30.432;2022-09-09T15:04:03;6.55;;;1.38;;
54979;SDS011;44101;50.462;30.432;2022-09-09T15:06:32;6.75;;;1.70;;
54979;SDS011;44101;50.462;30.432;2022-09-09T15:09:01;8.68;;;1.35;;
54979;SDS011;44101;50.462;30.432;2022-09-09T15:11:28;3.90;;;1.50;;
54979;SDS011;44101;50.462;30.432;2022-09-09T15:13:56;4.20;;;1.48;;
54979;SDS011;44101;50.462;30.432;2022-09-09T15:16:23;9.27;;;2.00;;
54979;SDS011;44101;50.462;30.432;2022-09-09T15:18:51;7.65;;;1.70;;
54979;SDS011;44101;50.462;30.432;2022-09-09T15:21:22;4.53;;;1.45;;
54979;SDS011;44101;50.462;30.432;2022-09-09T15:23:49;9.25;;;1.50;;
54979;SDS011;44101;50.462;30.432;2022-09-09T15:26:17;6.57;;;1.50;;
54979;SDS011;44101;50.462;30.432;2022-09-09T15:28:43;9.52;;;1.98;;
54979;SDS011;44101;50.462;30.432;2022-09-09T15:31:11;8.75;;;2.03;;
54979;SDS011;44101;50.462;30.432;2022-09-09T15:33:54;10.40;;;1.60;;
54979;SDS011;44101;50.462;30.432;2022-09-09T15:36:33;3.65;;;1.85;;
54979;SDS011;44101;50.462;30.432;2022-09-09T15:38:59;4.53;;;1.63;;
54979;SDS011;44101;50.462;30.432;2022-09-09T15:41:29;9.18;;;2.03;;
54979;SDS011;44101;50.462;30.432;2022-09-09T15:43:57;5.75;;;2.10;;
54979;SDS011;44101;50.462;30.432;2022-09-09T15:46:30;7.82;;;1.73;;
54979;SDS011;44101;50.462;30.432;2022-09-09T15:51:29;14.77;;;2.38;;
54979;SDS011;44101;50.462;30.432;2022-09-09T15:53:56;12.90;;;2.20;;
54979;SDS011;44101;50.462;30.432;2022-09-09T15:56:24;8.70;;;2.50;;
54979;SDS011;44101;50.462;30.432;2022-09-09T15:58:50;5.97;;;2.40;;
54979;SDS011;44101;50.462;30.432;2022-09-09T16:01:17;6.75;;;2.38;;
54979;SDS011;44101;50.462;30.432;2022-09-09T16:03:44;10.68;;;2.60;;
54979;SDS011;44101;50.462;30.432;2022-09-09T16:06:12;9.45;;;2.33;;
54979;SDS011;44101;50.462;30.432;2022-09-09T16:08:40;17.27;;;3.75;;
54979;SDS011;44101;50.462;30.432;2022-09-09T16:11:12;9.57;;;2.97;;
54979;SDS011;44101;50.462;30.432;2022-09-09T16:13:41;14.00;;;3.70;;
54979;SDS011;44101;50.462;30.432;2022-09-09T16:16:08;14.52;;;3.10;;
54979;SDS011;44101;50.462;30.432;2022-09-09T16:18:38;10.02;;;2.55;;
54979;SDS011;44101;50.462;30.432;2022-09-09T16:21:05;20.10;;;3.38;;
54979;SDS011;44101;50.462;30.432;2022-09-09T16:23:33;7.45;;;2.35;;
54979;SDS011;44101;50.462;30.432;2022-09-09T16:26:02;14.15;;;3.30;;
54979;SDS011;44101;50.462;30.432;2022-09-09T16:28:28;15.05;;;2.80;;
54979;SDS011;44101;50.462;30.432;2022-09-09T16:30:54;11.50;;;2.95;;
54979;SDS011;44101;50.462;30.432;2022-09-09T16:33:20;11.55;;;3.10;;
54979;SDS011;44101;50.462;30.432;2022-09-09T16:35:47;14.57;;;3.65;;
54979;SDS011;44101;50.462;30.432;2022-09-09T16:38:14;18.23;;;4.32;;
54979;SDS011;44101;50.462;30.432;2022-09-09T16:40:40;11.63;;;3.67;;
54979;SDS011;44101;50.462;30.432;2022-09-09T16:43:06;10.05;;;3.40;;
54979;SDS011;44101;50.462;30.432;2022-09-09T16:45:32;13.13;;;4.03;;
54979;SDS011;44101;50.462;30.432;2022-09-09T16:48:01;11.80;;;4.60;;
54979;SDS011;44101;50.462;30.432;2022-09-09T16:50:27;19.33;;;4.45;;
54979;SDS011;44101;50.462;30.432;2022-09-09T16:52:53;17.73;;;6.30;;
54979;SDS011;44101;50.462;30.432;2022-09-09T16:55:18;21.73;;;5.80;;
54979;SDS011;44101;50.462;30.432;2022-09-09T16:57:47;17.17;;;5.97;;
54979;SDS011;44101;50.462;30.432;2022-09-09T17:00:14;19.15;;;6.63;;
54979;SDS011;44101;50.462;30.432;2022-09-09T17:02:43;20.30;;;6.93;;
54979;SDS011;44101;50.462;30.432;2022-09-09T17:05:11;19.90;;;6.97;;
54979;SDS011;44101;50.462;30.432;2022-09-09T17:07:37;18.08;;;6.40;;
54979;SDS011;44101;50.462;30.432;2022-09-09T17:10:05;13.90;;;6.47;;
54979;SDS011;44101;50.462;30.432;2022-09-09T17:12:32;20.42;;;6.50;;
54979;SDS011;44101;50.462;30.432;2022-09-09T17:14:58;20.77;;;6.38;;
54979;SDS011;44101;50.462;30.432;2022-09-09T17:17:25;17.33;;;4.95;;
54979;SDS011;44101;50.462;30.432;2022-09-09T17:19:51;11.88;;;5.00;;
54979;SDS011;44101;50.462;30.432;2022-09-09T17:25:21;17.92;;;4.65;;
54979;SDS011;44101;50.462;30.432;2022-09-09T17:27:48;9.88;;;4.38;;
54979;SDS011;44101;50.462;30.432;2022-09-09T17:30:13;8.10;;;4.07;;
54979;SDS011;44101;50.462;30.432;2022-09-09T17:32:39;12.77;;;4.13;;
54979;SDS011;44101;50.462;30.432;2022-09-09T17:35:06;11.55;;;4.05;;
54979;SDS011;44101;50.462;30.432;2022-09-09T17:37:33;18.90;;;3.75;;